sensor_id;sensor_type;location;lat;lon;timestamp;pressure;altitude;pressure_sealevel;temperature;humidity
68628;BME280;55611;48.602;9.490;2023-07-20T00:03:58;96790;;;24;42
68628;BME280;55611;48.602;9.490;2023-07-20T00:06:28;96800;;;24;42
68628;BME280;55611;48.602;9.490;2023-07-20T00:08:59;96800;;;23.9;42
68628;BME280;55611;48.602;9.490;2023-07-20T00:11:30;96800;;;23.9;42
68628;BME280;55611;48.602;9.490;2023-07-20T00:14:01;96790;;;23.9;42
68628;BME280;55611;48.602;9.490;2023-07-20T00:16:31;96790;;;23.9;42
68628;BME280;55611;48.602;9.490;2023-07-20T00:19:02;96790;;;23.8;42
68628;BME280;55611;48.602;9.490;2023-07-20T00:24:04;96790;;;23.8;42
68628;BME280;55611;48.602;9.490;2023-07-20T00:26:34;96780;;;23.8;42
68628;BME280;55611;48.602;9.490;2023-07-20T00:29:05;96780;;;23.7;42
68628;BME280;55611;48.602;9.490;2023-07-20T00:31:36;96780;;;23.7;42
68628;BME280;55611;48.602;9.490;2023-07-20T00:34:07;96780;;;23.7;42
68628;BME280;55611;48.602;9.490;2023-07-20T00:36:38;96780;;;23.7;42
68628;BME280;55611;48.602;9.490;2023-07-20T00:39:08;96790;;;23.7;42
68628;BME280;55611;48.602;9.490;2023-07-20T00:41:39;96780;;;23.7;42
68628;BME280;55611;48.602;9.490;2023-07-20T00:44:10;96780;;;23.7;42
68628;BME280;55611;48.602;9.490;2023-07-20T00:46:41;96780;;;23.7;42
68628;BME280;55611;48.602;9.490;2023-07-20T00:49:12;96770;;;23.7;42.5
68628;BME280;55611;48.602;9.490;2023-07-20T00:51:42;96780;;;23.6;42.5
68628;BME280;55611;48.602;9.490;2023-07-20T00:54:13;96780;;;23.6;42.5
68628;BME280;55611;48.602;9.490;2023-07-20T00:56:44;96780;;;23.6;42.5
68628;BME280;55611;48.602;9.490;2023-07-20T00:59:14;96780;;;23.6;42.5
68628;BME280;55611;48.602;9.490;2023-07-20T01:01:45;96780;;;23.6;42.5
68628;BME280;55611;48.602;9.490;2023-07-20T01:04:16;96780;;;23.6;42.5
68628;BME280;55611;48.602;9.490;2023-07-20T01:06:50;96780;;;23.5;42.5
68628;BME280;55611;48.602;9.490;2023-07-20T01:09:52;96780;;;23.5;42.5
68628;BME280;55611;48.602;9.490;2023-07-20T01:11:52;96780;;;23.5;42.5
68628;BME280;55611;48.602;9.490;2023-07-20T01:14:19;96780;;;23.5;42.5
68628;BME280;55611;48.602;9.490;2023-07-20T01:16:50;96780;;;23.4;42.5
68628;BME280;55611;48.602;9.490;2023-07-20T01:19:21;96790;;;23.4;42.5
68628;BME280;55611;48.602;9.490;2023-07-20T01:22:01;96780;;;23.3;42.5
68628;BME280;55611;48.602;9.490;2023-07-20T01:27:07;96790;;;23.3;42.5
68628;BME280;55611;48.602;9.490;2023-07-20T01:29:29;96790;;;23.2;42.5
68628;BME280;55611;48.602;9.490;2023-07-20T01:31:55;96790;;;23.2;42.5
68628;BME280;55611;48.602;9.490;2023-07-20T01:34:25;96780;;;23.2;42.5
68628;BME280;55611;48.602;9.490;2023-07-20T01:36:56;96790;;;23.2;42.5
68628;BME280;55611;48.602;9.490;2023-07-20T01:41:57;96790;;;23.2;42.5
68628;BME280;55611;48.602;9.490;2023-07-20T01:44:28;96790;;;23.2;42.5
68628;BME280;55611;48.602;9.490;2023-07-20T01:46:59;96790;;;23.1;42.5
68628;BME280;55611;48.602;9.490;2023-07-20T01:49:30;96790;;;23.1;42.5
68628;BME280;55611;48.602;9.490;2023-07-20T01:52:00;96790;;;23;42.5
68628;BME280;55611;48.602;9.490;2023-07-20T01:54:31;96780;;;23;42.5
68628;BME280;55611;48.602;9.490;2023-07-20T02:02:02;96780;;;23;42.5
68628;BME280;55611;48.602;9.490;2023-07-20T02:04:33;96780;;;22.9;42.5
68628;BME280;55611;48.602;9.490;2023-07-20T02:07:04;96790;;;22.9;42.5
68628;BME280;55611;48.602;9.490;2023-07-20T02:09:35;96780;;;22.8;42.5
68628;BME280;55611;48.602;9.490;2023-07-20T02:12:05;96780;;;22.8;42.5
68628;BME280;55611;48.602;9.490;2023-07-20T02:14:36;96780;;;22.8;42.5
68628;BME280;55611;48.602;9.490;2023-07-20T02:17:07;96780;;;22.8;42.5
68628;BME280;55611;48.602;9.490;2023-07-20T02:19:38;96780;;;22.8;42.5
68628;BME280;55611;48.602;9.490;2023-07-20T02:22:08;96780;;;22.7;42.5
68628;BME280;55611;48.602;9.490;2023-07-20T02:27:09;96780;;;22.7;42.5
68628;BME280;55611;48.602;9.490;2023-07-20T02:29:40;96780;;;22.6;42.5
68628;BME280;55611;48.602;9.490;2023-07-20T02:32:11;96780;;;22.6;42.5
68628;BME280;55611;48.602;9.490;2023-07-20T02:34:42;96780;;;22.6;42.5
68628;BME280;55611;48.602;9.490;2023-07-20T02:37:13;96780;;;22.6;42.5
68628;BME280;55611;48.602;9.490;2023-07-20T02:39:43;96780;;;22.5;42.5
68628;BME280;55611;48.602;9.490;2023-07-20T02:42:14;96780;;;22.5;42.5
68628;BME280;55611;48.602;9.490;2023-07-20T02:44:45;96790;;;22.5;42.5
68628;BME280;55611;48.602;9.490;2023-07-20T02:47:16;96790;;;22.5;42.5
68628;BME280;55611;48.602;9.490;2023-07-20T02:49:46;96790;;;22.5;42.5
68628;BME280;55611;48.602;9.490;2023-07-20T02:52:17;96790;;;22.5;42.5
68628;BME280;55611;48.602;9.490;2023-07-20T02:54:48;96800;;;22.5;42.5
68628;BME280;55611;48.602;9.490;2023-07-20T02:57:19;96800;;;22.5;42.5
68628;BME280;55611;48.602;9.490;2023-07-20T02:59:50;96800;;;22.4;42.5
68628;BME280;55611;48.602;9.490;2023-07-20T03:02:20;96800;;;22.4;42.5
68628;BME280;55611;48.602;9.490;2023-07-20T03:04:51;96800;;;22.4;42.5
68628;BME280;55611;48.602;9.490;2023-07-20T03:07:22;96800;;;22.4;42.5
68628;BME280;55611;48.602;9.490;2023-07-20T03:09:53;96800;;;22.4;42.5
68628;BME280;55611;48.602;9.490;2023-07-20T03:12:23;96800;;;22.3;42.5
68628;BME280;55611;48.602;9.490;2023-07-20T03:14:54;96800;;;22.3;42.5
68628;BME280;55611;48.602;9.490;2023-07-20T03:17:25;96810;;;22.3;42.5
68628;BME280;55611;48.602;9.490;2023-07-20T03:19:56;96810;;;22.2;42.5
68628;BME280;55611;48.602;9.490;2023-07-20T03:22:26;96820;;;22.2;42.5
68628;BME280;55611;48.602;9.490;2023-07-20T03:24:57;96810;;;22.1;42.5
68628;BME280;55611;48.602;9.490;2023-07-20T03:27:28;96810;;;22.1;42.5
68628;BME280;55611;48.602;9.490;2023-07-20T03:29:59;96810;;;22;42.5
68628;BME280;55611;48.602;9.490;2023-07-20T03:32:30;96820;;;21.9;43
68628;BME280;55611;48.602;9.490;2023-07-20T03:35:00;96820;;;21.8;43
68628;BME280;55611;48.602;9.490;2023-07-20T03:37:31;96820;;;21.7;43
68628;BME280;55611;48.602;9.490;2023-07-20T03:40:02;96830;;;21.6;43
68628;BME280;55611;48.602;9.490;2023-07-20T03:42:33;96830;;;21.6;43
68628;BME280;55611;48.602;9.490;2023-07-20T03:45:04;96830;;;21.5;43
68628;BME280;55611;48.602;9.490;2023-07-20T03:47:34;96830;;;21.5;43
68628;BME280;55611;48.602;9.490;2023-07-20T03:50:05;96830;;;21.4;43
68628;BME280;55611;48.602;9.490;2023-07-20T03:52:36;96830;;;21.4;43
68628;BME280;55611;48.602;9.490;2023-07-20T03:55:07;96830;;;21.4;43
68628;BME280;55611;48.602;9.490;2023-07-20T03:57:37;96840;;;21.4;43.5
68628;BME280;55611;48.602;9.490;2023-07-20T04:00:08;96840;;;21.4;43.5
68628;BME280;55611;48.602;9.490;2023-07-20T04:02:39;96830;;;21.3;43.5
68628;BME280;55611;48.602;9.490;2023-07-20T04:05:10;96830;;;21.3;43.5
68628;BME280;55611;48.602;9.490;2023-07-20T04:07:40;96840;;;21.4;43.5
68628;BME280;55611;48.602;9.490;2023-07-20T04:10:11;96840;;;21.4;43.5
68628;BME280;55611;48.602;9.490;2023-07-20T04:12:42;96840;;;21.4;43.5
68628;BME280;55611;48.602;9.490;2023-07-20T04:15:13;96840;;;21.5;43.5
68628;BME280;55611;48.602;9.490;2023-07-20T04:17:44;96840;;;21.6;43.5
68628;BME280;55611;48.602;9.490;2023-07-20T04:20:14;96840;;;21.7;43.5
68628;BME280;55611;48.602;9.490;2023-07-20T04:22:45;96850;;;21.8;43.5
68628;BME280;55611;48.602;9.490;2023-07-20T04:25:17;96840;;;22;43.5
68628;BME280;55611;48.602;9.490;2023-07-20T04:27:47;96840;;;22.2;43.5
68628;BME280;55611;48.602;9.490;2023-07-20T04:30:18;96850;;;22.4;43
68628;BME280;55611;48.602;9.490;2023-07-20T04:32:49;96840;;;22.4;43
68628;BME280;55611;48.602;9.490;2023-07-20T04:35:51;96840;;;22.6;43
68628;BME280;55611;48.602;9.490;2023-07-20T04:37:50;96850;;;22.8;43
68628;BME280;55611;48.602;9.490;2023-07-20T04:40:21;96840;;;22.9;43
68628;BME280;55611;48.602;9.490;2023-07-20T04:42:51;96840;;;23;43
68628;BME280;55611;48.602;9.490;2023-07-20T04:47:53;96840;;;23.1;43
68628;BME280;55611;48.602;9.490;2023-07-20T04:50:24;96840;;;23.2;43
68628;BME280;55611;48.602;9.490;2023-07-20T04:52:54;96840;;;23.4;43
68628;BME280;55611;48.602;9.490;2023-07-20T04:55:25;96850;;;23.5;43
68628;BME280;55611;48.602;9.490;2023-07-20T04:57:56;96850;;;23.6;43
68628;BME280;55611;48.602;9.490;2023-07-20T05:00:27;96840;;;23.8;43
68628;BME280;55611;48.602;9.490;2023-07-20T05:02:58;96840;;;23.6;43
68628;BME280;55611;48.602;9.490;2023-07-20T05:05:28;96840;;;23.3;43
68628;BME280;55611;48.602;9.490;2023-07-20T05:07:59;96850;;;23;43.5
68628;BME280;55611;48.602;9.490;2023-07-20T05:10:30;96850;;;22.8;43.5
68628;BME280;55611;48.602;9.490;2023-07-20T05:13:01;96850;;;22.9;43.5
68628;BME280;55611;48.602;9.490;2023-07-20T05:15:32;96850;;;23.2;43.5
68628;BME280;55611;48.602;9.490;2023-07-20T05:18:02;96850;;;23.4;43.5
68628;BME280;55611;48.602;9.490;2023-07-20T05:20:34;96850;;;23.5;43.5
68628;BME280;55611;48.602;9.490;2023-07-20T05:23:04;96850;;;23.4;43.5
68628;BME280;55611;48.602;9.490;2023-07-20T05:25:34;96850;;;23.6;43.5
68628;BME280;55611;48.602;9.490;2023-07-20T05:28:05;96850;;;23.5;43.5
68628;BME280;55611;48.602;9.490;2023-07-20T05:30:36;96850;;;23.4;43.5
68628;BME280;55611;48.602;9.490;2023-07-20T05:33:07;96850;;;23.4;43.5
68628;BME280;55611;48.602;9.490;2023-07-20T05:35:38;96850;;;23.5;44
68628;BME280;55611;48.602;9.490;2023-07-20T05:38:08;96850;;;23.6;44
68628;BME280;55611;48.602;9.490;2023-07-20T05:40:40;96850;;;23.4;44
68628;BME280;55611;48.602;9.490;2023-07-20T05:43:10;96850;;;23.4;44
68628;BME280;55611;48.602;9.490;2023-07-20T05:48:11;96850;;;23.3;44
68628;BME280;55611;48.602;9.490;2023-07-20T05:53:12;96850;;;23.2;44
68628;BME280;55611;48.602;9.490;2023-07-20T05:55:43;96850;;;23.2;44
68628;BME280;55611;48.602;9.490;2023-07-20T05:58:14;96850;;;23.2;44
68628;BME280;55611;48.602;9.490;2023-07-20T06:00:47;96860;;;23.3;44
68628;BME280;55611;48.602;9.490;2023-07-20T06:03:16;96860;;;23.3;44
68628;BME280;55611;48.602;9.490;2023-07-20T06:05:46;96860;;;23.3;44
68628;BME280;55611;48.602;9.490;2023-07-20T06:08:17;96860;;;23.3;44
68628;BME280;55611;48.602;9.490;2023-07-20T06:10:49;96860;;;23.4;44
68628;BME280;55611;48.602;9.490;2023-07-20T06:13:19;96860;;;23.4;44
68628;BME280;55611;48.602;9.490;2023-07-20T06:15:49;96860;;;23.5;44
68628;BME280;55611;48.602;9.490;2023-07-20T06:18:22;96860;;;23.5;44
68628;BME280;55611;48.602;9.490;2023-07-20T06:23:21;96860;;;23.5;44
68628;BME280;55611;48.602;9.490;2023-07-20T06:25:52;96860;;;23.5;44
68628;BME280;55611;48.602;9.490;2023-07-20T06:28:23;96860;;;23.5;44
68628;BME280;55611;48.602;9.490;2023-07-20T06:30:59;96860;;;23.7;44
68628;BME280;55611;48.602;9.490;2023-07-20T06:33:24;96860;;;23.7;44
68628;BME280;55611;48.602;9.490;2023-07-20T06:35:55;96860;;;23.7;44
68628;BME280;55611;48.602;9.490;2023-07-20T06:38:26;96860;;;23.7;44
68628;BME280;55611;48.602;9.490;2023-07-20T06:40:57;96850;;;23.8;44
68628;BME280;55611;48.602;9.490;2023-07-20T06:43:27;96850;;;23.8;44
68628;BME280;55611;48.602;9.490;2023-07-20T06:45:58;96850;;;23.8;43.5
68628;BME280;55611;48.602;9.490;2023-07-20T06:48:29;96860;;;23.8;43.5
68628;BME280;55611;48.602;9.490;2023-07-20T06:51:00;96860;;;23.8;43.5
68628;BME280;55611;48.602;9.490;2023-07-20T06:53:31;96860;;;23.8;43.5
68628;BME280;55611;48.602;9.490;2023-07-20T06:56:01;96860;;;23.8;43.5
68628;BME280;55611;48.602;9.490;2023-07-20T06:58:32;96850;;;24;43.5
68628;BME280;55611;48.602;9.490;2023-07-20T07:01:04;96850;;;24.3;43.5
68628;BME280;55611;48.602;9.490;2023-07-20T07:03:34;96850;;;24.3;43.5
68628;BME280;55611;48.602;9.490;2023-07-20T07:06:04;96850;;;24.3;43.5
68628;BME280;55611;48.602;9.490;2023-07-20T07:08:35;96850;;;24.5;43.5
68628;BME280;55611;48.602;9.490;2023-07-20T07:11:06;96850;;;24.8;43.5
68628;BME280;55611;48.602;9.490;2023-07-20T07:13:37;96850;;;25;43.5
68628;BME280;55611;48.602;9.490;2023-07-20T07:16:07;96850;;;25.1;43
68628;BME280;55611;48.602;9.490;2023-07-20T07:18:38;96840;;;25.1;43
68628;BME280;55611;48.602;9.490;2023-07-20T07:21:09;96840;;;25;43
68628;BME280;55611;48.602;9.490;2023-07-20T07:23:40;96840;;;25;43
68628;BME280;55611;48.602;9.490;2023-07-20T07:26:11;96840;;;24.9;43
68628;BME280;55611;48.602;9.490;2023-07-20T07:28:41;96850;;;24.7;43
68628;BME280;55611;48.602;9.490;2023-07-20T07:31:12;96840;;;24.8;43
68628;BME280;55611;48.602;9.490;2023-07-20T07:33:43;96840;;;24.8;43
68628;BME280;55611;48.602;9.490;2023-07-20T07:36:14;96840;;;24.8;43
68628;BME280;55611;48.602;9.490;2023-07-20T07:38:44;96840;;;24.9;43
68628;BME280;55611;48.602;9.490;2023-07-20T07:41:15;96840;;;25;43
68628;BME280;55611;48.602;9.490;2023-07-20T07:43:46;96840;;;25.1;43
68628;BME280;55611;48.602;9.490;2023-07-20T07:46:17;96830;;;25.1;43
68628;BME280;55611;48.602;9.490;2023-07-20T07:48:48;96840;;;25.2;43
68628;BME280;55611;48.602;9.490;2023-07-20T07:51:18;96840;;;25.2;43
68628;BME280;55611;48.602;9.490;2023-07-20T07:53:49;96840;;;25.1;43
68628;BME280;55611;48.602;9.490;2023-07-20T07:56:20;96840;;;25.1;43
68628;BME280;55611;48.602;9.490;2023-07-20T07:58:51;96830;;;24.9;43
68628;BME280;55611;48.602;9.490;2023-07-20T08:01:21;96840;;;24.9;43
68628;BME280;55611;48.602;9.490;2023-07-20T08:03:52;96840;;;24.9;43
68628;BME280;55611;48.602;9.490;2023-07-20T08:06:23;96840;;;25;43
68628;BME280;55611;48.602;9.490;2023-07-20T08:08:54;96830;;;25;43
68628;BME280;55611;48.602;9.490;2023-07-20T08:11:24;96840;;;25.1;43
68628;BME280;55611;48.602;9.490;2023-07-20T08:13:55;96830;;;25.1;43
68628;BME280;55611;48.602;9.490;2023-07-20T08:16:26;96840;;;25.2;43
68628;BME280;55611;48.602;9.490;2023-07-20T08:18:57;96830;;;24.9;43
68628;BME280;55611;48.602;9.490;2023-07-20T08:21:28;96830;;;24.9;43
68628;BME280;55611;48.602;9.490;2023-07-20T08:23:58;96820;;;25.1;43
68628;BME280;55611;48.602;9.490;2023-07-20T08:26:29;96820;;;25.2;43
68628;BME280;55611;48.602;9.490;2023-07-20T08:29:00;96830;;;25.5;42.5
68628;BME280;55611;48.602;9.490;2023-07-20T08:31:31;96830;;;25.7;42.5
68628;BME280;55611;48.602;9.490;2023-07-20T08:34:01;96830;;;25.7;42.5
68628;BME280;55611;48.602;9.490;2023-07-20T08:36:32;96830;;;25.6;42.5
68628;BME280;55611;48.602;9.490;2023-07-20T08:39:03;96820;;;25.6;42.5
68628;BME280;55611;48.602;9.490;2023-07-20T08:41:34;96820;;;25.5;42.5
68628;BME280;55611;48.602;9.490;2023-07-20T08:44:05;96820;;;25.7;42.5
68628;BME280;55611;48.602;9.490;2023-07-20T08:46:36;96830;;;25.9;42.5
68628;BME280;55611;48.602;9.490;2023-07-20T08:49:06;96820;;;26;42.5
68628;BME280;55611;48.602;9.490;2023-07-20T08:51:37;96820;;;26;42
68628;BME280;55611;48.602;9.490;2023-07-20T08:54:08;96820;;;26;42
68628;BME280;55611;48.602;9.490;2023-07-20T08:56:38;96820;;;26.1;42
68628;BME280;55611;48.602;9.490;2023-07-20T08:59:09;96820;;;26;42.5
68628;BME280;55611;48.602;9.490;2023-07-20T09:01:40;96820;;;26;42
68628;BME280;55611;48.602;9.490;2023-07-20T09:04:11;96820;;;26;42
68628;BME280;55611;48.602;9.490;2023-07-20T09:06:42;96810;;;26.1;42
68628;BME280;55611;48.602;9.490;2023-07-20T09:09:12;96820;;;26.1;42
68628;BME280;55611;48.602;9.490;2023-07-20T09:11:43;96810;;;26.2;42
68628;BME280;55611;48.602;9.490;2023-07-20T09:14:14;96810;;;26.4;42
68628;BME280;55611;48.602;9.490;2023-07-20T09:16:49;96810;;;26.6;42
68628;BME280;55611;48.602;9.490;2023-07-20T09:19:16;96810;;;26.7;42
68628;BME280;55611;48.602;9.490;2023-07-20T09:21:47;96810;;;26.7;42
68628;BME280;55611;48.602;9.490;2023-07-20T09:24:18;96800;;;26.7;41.5
68628;BME280;55611;48.602;9.490;2023-07-20T09:26:48;96800;;;26.7;41.5
68628;BME280;55611;48.602;9.490;2023-07-20T09:29:19;96800;;;26.7;42
68628;BME280;55611;48.602;9.490;2023-07-20T09:32:04;96790;;;26.6;42
68628;BME280;55611;48.602;9.490;2023-07-20T09:36:51;96790;;;26.7;42
68628;BME280;55611;48.602;9.490;2023-07-20T09:39:22;96800;;;26.8;42
68628;BME280;55611;48.602;9.490;2023-07-20T09:41:52;96800;;;26.9;42
68628;BME280;55611;48.602;9.490;2023-07-20T09:44:23;96800;;;26.8;41.5
68628;BME280;55611;48.602;9.490;2023-07-20T09:46:54;96800;;;26.9;41.5
68628;BME280;55611;48.602;9.490;2023-07-20T09:49:25;96800;;;27;41.5
68628;BME280;55611;48.602;9.490;2023-07-20T09:51:57;96810;;;27.1;41.5
68628;BME280;55611;48.602;9.490;2023-07-20T09:54:26;96800;;;27.1;41.5
68628;BME280;55611;48.602;9.490;2023-07-20T09:56:57;96790;;;27.1;41.5
68628;BME280;55611;48.602;9.490;2023-07-20T09:59:28;96790;;;27;41.5
68628;BME280;55611;48.602;9.490;2023-07-20T10:01:59;96790;;;27;41.5
68628;BME280;55611;48.602;9.490;2023-07-20T10:04:29;96790;;;27.1;41.5
68628;BME280;55611;48.602;9.490;2023-07-20T10:07:00;96770;;;27.1;41.5
68628;BME280;55611;48.602;9.490;2023-07-20T10:09:31;96780;;;27.3;41.5
68628;BME280;55611;48.602;9.490;2023-07-20T10:12:02;96780;;;27.4;41.5
68628;BME280;55611;48.602;9.490;2023-07-20T10:14:32;96780;;;27.1;41.5
68628;BME280;55611;48.602;9.490;2023-07-20T10:17:03;96780;;;26.8;41.5
68628;BME280;55611;48.602;9.490;2023-07-20T10:19:38;96770;;;26.6;41.5
68628;BME280;55611;48.602;9.490;2023-07-20T10:22:07;96770;;;26.7;41.5
68628;BME280;55611;48.602;9.490;2023-07-20T10:24:36;96770;;;26.7;41.5
68628;BME280;55611;48.602;9.490;2023-07-20T10:27:06;96760;;;26.6;41.5
68628;BME280;55611;48.602;9.490;2023-07-20T10:29:37;96770;;;26.6;41.5
68628;BME280;55611;48.602;9.490;2023-07-20T10:32:08;96760;;;26.5;41.5
68628;BME280;55611;48.602;9.490;2023-07-20T10:34:39;96760;;;26.5;41.5
68628;BME280;55611;48.602;9.490;2023-07-20T10:37:09;96760;;;26.5;41.5
68628;BME280;55611;48.602;9.490;2023-07-20T10:39:40;96760;;;26.6;41.5
68628;BME280;55611;48.602;9.490;2023-07-20T10:42:11;96750;;;26.8;41.5
68628;BME280;55611;48.602;9.490;2023-07-20T10:44:42;96750;;;26.9;41.5
68628;BME280;55611;48.602;9.490;2023-07-20T10:47:13;96750;;;27.1;41.5
68628;BME280;55611;48.602;9.490;2023-07-20T10:49:59;96740;;;27.4;41.5
68628;BME280;55611;48.602;9.490;2023-07-20T10:52:14;96740;;;27.6;41
68628;BME280;55611;48.602;9.490;2023-07-20T10:54:46;96750;;;27.9;41
68628;BME280;55611;48.602;9.490;2023-07-20T10:57:24;96740;;;28;41
68628;BME280;55611;48.602;9.490;2023-07-20T10:59:46;96730;;;28.1;41
68628;BME280;55611;48.602;9.490;2023-07-20T11:02:18;96740;;;28.2;40.5
68628;BME280;55611;48.602;9.490;2023-07-20T11:04:48;96730;;;28.2;40.5
68628;BME280;55611;48.602;9.490;2023-07-20T11:07:36;96730;;;28.1;40.5
68628;BME280;55611;48.602;9.490;2023-07-20T11:09:49;96720;;;28.1;40.5
68628;BME280;55611;48.602;9.490;2023-07-20T11:12:20;96730;;;28.2;40.5
68628;BME280;55611;48.602;9.490;2023-07-20T11:14:55;96720;;;28.3;40.5
68628;BME280;55611;48.602;9.490;2023-07-20T11:17:28;96730;;;28.4;40.5
68628;BME280;55611;48.602;9.490;2023-07-20T11:19:56;96720;;;28.5;40.5
68628;BME280;55611;48.602;9.490;2023-07-20T11:22:23;96720;;;28.5;40.5
68628;BME280;55611;48.602;9.490;2023-07-20T11:24:55;96720;;;28.4;40.5
68628;BME280;55611;48.602;9.490;2023-07-20T11:27:25;96730;;;28.5;40.5
68628;BME280;55611;48.602;9.490;2023-07-20T11:29:56;96720;;;28.7;40.5
68628;BME280;55611;48.602;9.490;2023-07-20T11:32:26;96710;;;28.6;40.5
68628;BME280;55611;48.602;9.490;2023-07-20T11:34:58;96700;;;28.7;40.5
68628;BME280;55611;48.602;9.490;2023-07-20T11:37:28;96710;;;28.7;40
68628;BME280;55611;48.602;9.490;2023-07-20T11:39:59;96710;;;28.7;40
68628;BME280;55611;48.602;9.490;2023-07-20T11:42:30;96710;;;28.4;40
68628;BME280;55611;48.602;9.490;2023-07-20T11:45:02;96720;;;28.2;40
68628;BME280;55611;48.602;9.490;2023-07-20T11:47:31;96710;;;28.1;40
68628;BME280;55611;48.602;9.490;2023-07-20T11:50:03;96710;;;28.2;40
68628;BME280;55611;48.602;9.490;2023-07-20T11:52:33;96710;;;28.5;40
68628;BME280;55611;48.602;9.490;2023-07-20T11:55:04;96710;;;28.5;40
68628;BME280;55611;48.602;9.490;2023-07-20T11:57:34;96700;;;28.2;40
68628;BME280;55611;48.602;9.490;2023-07-20T12:00:05;96700;;;27.9;40
68628;BME280;55611;48.602;9.490;2023-07-20T12:02:37;96700;;;27.7;40
68628;BME280;55611;48.602;9.490;2023-07-20T12:05:07;96700;;;27.6;40
68628;BME280;55611;48.602;9.490;2023-07-20T12:07:37;96690;;;27.7;40.5
68628;BME280;55611;48.602;9.490;2023-07-20T12:10:09;96690;;;27.9;40.5
68628;BME280;55611;48.602;9.490;2023-07-20T12:12:39;96690;;;28;40.5
68628;BME280;55611;48.602;9.490;2023-07-20T12:15:13;96690;;;28.1;40
68628;BME280;55611;48.602;9.490;2023-07-20T12:17:42;96690;;;28.1;40
68628;BME280;55611;48.602;9.490;2023-07-20T12:20:11;96680;;;28;40
68628;BME280;55611;48.602;9.490;2023-07-20T12:22:43;96680;;;27.8;40
68628;BME280;55611;48.602;9.490;2023-07-20T12:25:13;96680;;;27.7;40.5
68628;BME280;55611;48.602;9.490;2023-07-20T12:27:44;96670;;;27.7;40
68628;BME280;55611;48.602;9.490;2023-07-20T12:30:14;96680;;;27.6;40.5
68628;BME280;55611;48.602;9.490;2023-07-20T12:32:45;96670;;;27.5;40.5
68628;BME280;55611;48.602;9.490;2023-07-20T12:35:16;96670;;;27.4;40.5
68628;BME280;55611;48.602;9.490;2023-07-20T12:37:47;96670;;;27.3;40.5
68628;BME280;55611;48.602;9.490;2023-07-20T12:40:17;96670;;;27.3;40.5
68628;BME280;55611;48.602;9.490;2023-07-20T12:42:48;96660;;;27.5;40.5
68628;BME280;55611;48.602;9.490;2023-07-20T12:45:19;96660;;;27.8;40.5
68628;BME280;55611;48.602;9.490;2023-07-20T12:47:50;96660;;;28.1;40.5
68628;BME280;55611;48.602;9.490;2023-07-20T12:50:20;96650;;;28.4;40
68628;BME280;55611;48.602;9.490;2023-07-20T12:52:51;96660;;;28.6;40
68628;BME280;55611;48.602;9.490;2023-07-20T12:55:22;96660;;;28.7;40
68628;BME280;55611;48.602;9.490;2023-07-20T12:57:53;96660;;;28.5;40
68628;BME280;55611;48.602;9.490;2023-07-20T13:00:24;96650;;;28.3;40
68628;BME280;55611;48.602;9.490;2023-07-20T13:02:54;96650;;;28.5;40
68628;BME280;55611;48.602;9.490;2023-07-20T13:05:25;96650;;;28.7;40
68628;BME280;55611;48.602;9.490;2023-07-20T13:07:56;96650;;;28.9;40
68628;BME280;55611;48.602;9.490;2023-07-20T13:10:27;96640;;;29;39.5
68628;BME280;55611;48.602;9.490;2023-07-20T13:12:57;96650;;;28.9;39.5
68628;BME280;55611;48.602;9.490;2023-07-20T13:15:29;96640;;;28.7;39.5
68628;BME280;55611;48.602;9.490;2023-07-20T13:17:59;96640;;;28.7;39.5
68628;BME280;55611;48.602;9.490;2023-07-20T13:20:30;96640;;;28.5;40
68628;BME280;55611;48.602;9.490;2023-07-20T13:23:01;96640;;;28.5;39.5
68628;BME280;55611;48.602;9.490;2023-07-20T13:25:31;96640;;;28.6;40
68628;BME280;55611;48.602;9.490;2023-07-20T13:28:02;96630;;;28.7;40
68628;BME280;55611;48.602;9.490;2023-07-20T13:30:33;96630;;;28.8;39.5
68628;BME280;55611;48.602;9.490;2023-07-20T13:33:04;96630;;;28.6;39.5
68628;BME280;55611;48.602;9.490;2023-07-20T13:35:34;96630;;;28.3;39.5
68628;BME280;55611;48.602;9.490;2023-07-20T13:38:05;96630;;;28.2;39.5
68628;BME280;55611;48.602;9.490;2023-07-20T13:40:36;96630;;;28.4;39.5
68628;BME280;55611;48.602;9.490;2023-07-20T13:43:07;96630;;;28.6;39.5
68628;BME280;55611;48.602;9.490;2023-07-20T13:45:37;96620;;;28.6;39.5
68628;BME280;55611;48.602;9.490;2023-07-20T13:48:08;96620;;;28.5;39.5
68628;BME280;55611;48.602;9.490;2023-07-20T13:50:40;96630;;;28.4;39.5
68628;BME280;55611;48.602;9.490;2023-07-20T13:53:10;96620;;;28.5;39.5
68628;BME280;55611;48.602;9.490;2023-07-20T13:55:41;96620;;;28.5;39.5
68628;BME280;55611;48.602;9.490;2023-07-20T13:58:11;96610;;;28.7;39.5
68628;BME280;55611;48.602;9.490;2023-07-20T14:00:42;96610;;;28.6;39.5
68628;BME280;55611;48.602;9.490;2023-07-20T14:05:43;96610;;;28.5;39.5
68628;BME280;55611;48.602;9.490;2023-07-20T14:08:14;96600;;;28.5;39.5
68628;BME280;55611;48.602;9.490;2023-07-20T14:10:45;96600;;;28.4;39.5
68628;BME280;55611;48.602;9.490;2023-07-20T14:13:15;96590;;;28.5;39.5
68628;BME280;55611;48.602;9.490;2023-07-20T14:15:46;96600;;;28.5;39.5
68628;BME280;55611;48.602;9.490;2023-07-20T14:18:17;96600;;;28.5;39.5
68628;BME280;55611;48.602;9.490;2023-07-20T14:20:48;96590;;;28.5;39.5
68628;BME280;55611;48.602;9.490;2023-07-20T14:23:19;96600;;;28.4;39.5
68628;BME280;55611;48.602;9.490;2023-07-20T14:25:49;96600;;;28.4;39
68628;BME280;55611;48.602;9.490;2023-07-20T14:28:20;96600;;;28.4;39
68628;BME280;55611;48.602;9.490;2023-07-20T14:30:51;96590;;;28.2;39.5
68628;BME280;55611;48.602;9.490;2023-07-20T14:33:22;96590;;;28.1;39.5
68628;BME280;55611;48.602;9.490;2023-07-20T14:35:52;96580;;;28.1;39.5
68628;BME280;55611;48.602;9.490;2023-07-20T14:38:23;96580;;;28.3;39.5
68628;BME280;55611;48.602;9.490;2023-07-20T14:40:54;96580;;;28.4;39.5
68628;BME280;55611;48.602;9.490;2023-07-20T14:43:25;96590;;;28.4;39.5
68628;BME280;55611;48.602;9.490;2023-07-20T14:45:55;96590;;;28.3;39
68628;BME280;55611;48.602;9.490;2023-07-20T14:48:26;96580;;;28.3;39
68628;BME280;55611;48.602;9.490;2023-07-20T14:50:57;96580;;;28.3;39
68628;BME280;55611;48.602;9.490;2023-07-20T14:53:28;96580;;;28.2;39
68628;BME280;55611;48.602;9.490;2023-07-20T14:56:00;96570;;;28.3;39
68628;BME280;55611;48.602;9.490;2023-07-20T14:58:29;96580;;;28.4;39
68628;BME280;55611;48.602;9.490;2023-07-20T15:01:00;96570;;;28.4;39